sensor_id;sensor_type;location;lat;lon;timestamp;P1;durP1;ratioP1;P2;durP2;ratioP2
18853;SDS011;9556;49.374;19.446;2023-06-01T00:00:33;7.75;;;4.07;;
18853;SDS011;9556;49.374;19.446;2023-06-01T00:03:00;5.05;;;3.50;;
18853;SDS011;9556;49.374;19.446;2023-06-01T00:05:27;6.25;;;3.90;;
18853;SDS011;9556;49.374;19.446;2023-06-01T00:07:54;6.10;;;3.70;;
18853;SDS011;9556;49.374;19.446;2023-06-01T00:10:21;4.93;;;3.40;;
18853;SDS011;9556;49.374;19.446;2023-06-01T00:12:48;6.38;;;3.40;;
18853;SDS011;9556;49.374;19.446;2023-06-01T00:15:16;5.03;;;3.15;;
18853;SDS011;9556;49.374;19.446;2023-06-01T00:17:44;5.60;;;3.15;;
18853;SDS011;9556;49.374;19.446;2023-06-01T00:20:11;5.28;;;3.10;;
18853;SDS011;9556;49.374;19.446;2023-06-01T00:22:38;4.47;;;3.08;;
18853;SDS011;9556;49.374;19.446;2023-06-01T00:25:08;5.00;;;3.25;;
18853;SDS011;9556;49.374;19.446;2023-06-01T00:27:35;8.05;;;3.40;;
18853;SDS011;9556;49.374;19.446;2023-06-01T00:30:03;5.10;;;3.38;;
18853;SDS011;9556;49.374;19.446;2023-06-01T00:32:30;5.72;;;3.20;;
18853;SDS011;9556;49.374;19.446;2023-06-01T00:34:58;5.93;;;3.00;;
18853;SDS011;9556;49.374;19.446;2023-06-01T00:37:25;6.00;;;3.20;;
18853;SDS011;9556;49.374;19.446;2023-06-01T00:39:53;5.43;;;3.05;;
18853;SDS011;9556;49.374;19.446;2023-06-01T00:42:20;6.18;;;3.38;;
18853;SDS011;9556;49.374;19.446;2023-06-01T00:44:47;6.47;;;3.05;;
18853;SDS011;9556;49.374;19.446;2023-06-01T00:47:14;5.55;;;3.17;;
18853;SDS011;9556;49.374;19.446;2023-06-01T00:49:42;5.15;;;3.10;;
18853;SDS011;9556;49.374;19.446;2023-06-01T00:52:10;6.07;;;3.05;;
18853;SDS011;9556;49.374;19.446;2023-06-01T00:54:38;6.43;;;3.05;;
18853;SDS011;9556;49.374;19.446;2023-06-01T00:57:05;4.85;;;2.95;;
18853;SDS011;9556;49.374;19.446;2023-06-01T00:59:33;4.40;;;3.00;;
18853;SDS011;9556;49.374;19.446;2023-06-01T01:02:00;3.95;;;2.90;;
18853;SDS011;9556;49.374;19.446;2023-06-01T01:04:29;4.30;;;2.65;;
18853;SDS011;9556;49.374;19.446;2023-06-01T01:07:00;3.90;;;2.70;;
18853;SDS011;9556;49.374;19.446;2023-06-01T01:09:32;7.30;;;2.92;;
18853;SDS011;9556;49.374;19.446;2023-06-01T01:12:00;4.90;;;2.72;;
18853;SDS011;9556;49.374;19.446;2023-06-01T01:14:30;5.38;;;2.83;;
18853;SDS011;9556;49.374;19.446;2023-06-01T01:17:00;4.32;;;2.88;;
18853;SDS011;9556;49.374;19.446;2023-06-01T01:19:35;5.22;;;3.25;;
18853;SDS011;9556;49.374;19.446;2023-06-01T01:22:12;6.15;;;3.00;;
18853;SDS011;9556;49.374;19.446;2023-06-01T01:24:47;6.45;;;2.97;;
18853;SDS011;9556;49.374;19.446;2023-06-01T01:27:18;6.95;;;3.17;;
18853;SDS011;9556;49.374;19.446;2023-06-01T01:29:53;4.45;;;2.90;;
18853;SDS011;9556;49.374;19.446;2023-06-01T01:32:21;4.05;;;2.80;;
18853;SDS011;9556;49.374;19.446;2023-06-01T01:34:50;6.10;;;3.00;;
18853;SDS011;9556;49.374;19.446;2023-06-01T01:37:18;6.07;;;2.88;;
18853;SDS011;9556;49.374;19.446;2023-06-01T01:39:48;7.32;;;2.75;;
18853;SDS011;9556;49.374;19.446;2023-06-01T01:42:15;5.03;;;3.08;;
18853;SDS011;9556;49.374;19.446;2023-06-01T01:44:42;5.85;;;2.97;;
18853;SDS011;9556;49.374;19.446;2023-06-01T01:47:14;4.63;;;2.85;;
18853;SDS011;9556;49.374;19.446;2023-06-01T01:49:46;5.15;;;3.10;;
18853;SDS011;9556;49.374;19.446;2023-06-01T01:52:15;6.35;;;2.70;;
18853;SDS011;9556;49.374;19.446;2023-06-01T01:54:45;3.92;;;2.50;;
18853;SDS011;9556;49.374;19.446;2023-06-01T01:57:13;4.78;;;2.80;;
18853;SDS011;9556;49.374;19.446;2023-06-01T01:59:40;5.40;;;3.05;;
18853;SDS011;9556;49.374;19.446;2023-06-01T02:02:08;4.70;;;2.83;;
18853;SDS011;9556;49.374;19.446;2023-06-01T02:04:38;5.15;;;2.90;;
18853;SDS011;9556;49.374;19.446;2023-06-01T02:07:06;4.82;;;3.15;;
18853;SDS011;9556;49.374;19.446;2023-06-01T02:09:33;5.60;;;3.08;;
18853;SDS011;9556;49.374;19.446;2023-06-01T02:12:00;5.13;;;3.50;;
18853;SDS011;9556;49.374;19.446;2023-06-01T02:14:28;4.88;;;2.92;;
18853;SDS011;9556;49.374;19.446;2023-06-01T02:16:55;4.63;;;2.95;;
18853;SDS011;9556;49.374;19.446;2023-06-01T02:19:22;6.35;;;3.15;;
18853;SDS011;9556;49.374;19.446;2023-06-01T02:21:51;7.85;;;3.30;;
18853;SDS011;9556;49.374;19.446;2023-06-01T02:24:19;4.70;;;3.00;;
18853;SDS011;9556;49.374;19.446;2023-06-01T02:26:46;5.25;;;3.10;;
18853;SDS011;9556;49.374;19.446;2023-06-01T02:29:17;5.28;;;3.35;;
18853;SDS011;9556;49.374;19.446;2023-06-01T02:31:46;7.18;;;3.00;;
18853;SDS011;9556;49.374;19.446;2023-06-01T02:34:14;4.72;;;2.72;;
18853;SDS011;9556;49.374;19.446;2023-06-01T02:36:41;4.88;;;2.90;;
18853;SDS011;9556;49.374;19.446;2023-06-01T02:39:10;4.78;;;2.85;;
18853;SDS011;9556;49.374;19.446;2023-06-01T02:41:37;4.93;;;3.00;;
18853;SDS011;9556;49.374;19.446;2023-06-01T02:44:04;6.63;;;3.30;;
18853;SDS011;9556;49.374;19.446;2023-06-01T02:46:31;5.13;;;3.38;;
18853;SDS011;9556;49.374;19.446;2023-06-01T02:48:59;7.25;;;3.22;;
18853;SDS011;9556;49.374;19.446;2023-06-01T02:51:26;4.20;;;2.92;;
18853;SDS011;9556;49.374;19.446;2023-06-01T02:53:53;5.00;;;2.97;;
18853;SDS011;9556;49.374;19.446;2023-06-01T02:56:22;6.68;;;2.88;;
18853;SDS011;9556;49.374;19.446;2023-06-01T02:58:49;4.75;;;3.25;;
18853;SDS011;9556;49.374;19.446;2023-06-01T03:01:16;5.97;;;2.97;;
18853;SDS011;9556;49.374;19.446;2023-06-01T03:03:44;8.25;;;2.88;;
18853;SDS011;9556;49.374;19.446;2023-06-01T03:06:12;4.40;;;2.88;;
18853;SDS011;9556;49.374;19.446;2023-06-01T03:08:42;4.28;;;2.63;;
18853;SDS011;9556;49.374;19.446;2023-06-01T03:11:10;4.78;;;2.55;;
18853;SDS011;9556;49.374;19.446;2023-06-01T03:13:38;3.55;;;2.70;;
18853;SDS011;9556;49.374;19.446;2023-06-01T03:16:06;3.63;;;2.45;;
18853;SDS011;9556;49.374;19.446;2023-06-01T03:18:33;4.20;;;2.78;;
18853;SDS011;9556;49.374;19.446;2023-06-01T03:21:00;4.53;;;2.92;;
18853;SDS011;9556;49.374;19.446;2023-06-01T03:23:27;4.25;;;2.45;;
18853;SDS011;9556;49.374;19.446;2023-06-01T03:25:55;3.78;;;2.65;;
18853;SDS011;9556;49.374;19.446;2023-06-01T03:28:22;3.85;;;2.88;;
18853;SDS011;9556;49.374;19.446;2023-06-01T03:30:51;5.45;;;2.70;;
18853;SDS011;9556;49.374;19.446;2023-06-01T03:33:18;5.60;;;2.55;;
18853;SDS011;9556;49.374;19.446;2023-06-01T03:35:45;5.40;;;2.60;;
18853;SDS011;9556;49.374;19.446;2023-06-01T03:38:14;3.60;;;2.50;;
18853;SDS011;9556;49.374;19.446;2023-06-01T03:40:41;4.32;;;2.70;;
18853;SDS011;9556;49.374;19.446;2023-06-01T03:43:09;4.10;;;2.60;;
18853;SDS011;9556;49.374;19.446;2023-06-01T03:45:36;5.03;;;2.60;;
18853;SDS011;9556;49.374;19.446;2023-06-01T03:48:05;4.03;;;2.60;;
18853;SDS011;9556;49.374;19.446;2023-06-01T03:50:33;3.92;;;2.70;;
18853;SDS011;9556;49.374;19.446;2023-06-01T03:53:00;4.40;;;2.50;;
18853;SDS011;9556;49.374;19.446;2023-06-01T03:55:27;5.30;;;2.60;;
18853;SDS011;9556;49.374;19.446;2023-06-01T03:57:55;3.08;;;2.22;;
18853;SDS011;9556;49.374;19.446;2023-06-01T04:00:23;4.55;;;2.50;;
18853;SDS011;9556;49.374;19.446;2023-06-01T04:02:51;3.67;;;2.42;;
18853;SDS011;9556;49.374;19.446;2023-06-01T04:05:20;4.38;;;2.53;;
18853;SDS011;9556;49.374;19.446;2023-06-01T04:07:48;4.55;;;2.47;;
18853;SDS011;9556;49.374;19.446;2023-06-01T04:10:16;3.60;;;2.67;;
18853;SDS011;9556;49.374;19.446;2023-06-01T04:12:43;3.28;;;2.55;;
18853;SDS011;9556;49.374;19.446;2023-06-01T04:15:11;5.18;;;2.75;;
18853;SDS011;9556;49.374;19.446;2023-06-01T04:17:39;3.85;;;2.50;;
18853;SDS011;9556;49.374;19.446;2023-06-01T04:20:08;5.43;;;3.13;;
18853;SDS011;9556;49.374;19.446;2023-06-01T04:22:37;4.22;;;3.00;;
18853;SDS011;9556;49.374;19.446;2023-06-01T04:25:05;5.75;;;3.10;;
18853;SDS011;9556;49.374;19.446;2023-06-01T04:27:32;5.32;;;3.28;;
18853;SDS011;9556;49.374;19.446;2023-06-01T04:30:02;6.43;;;3.15;;
18853;SDS011;9556;49.374;19.446;2023-06-01T04:32:30;5.22;;;3.30;;
18853;SDS011;9556;49.374;19.446;2023-06-01T04:34:57;7.95;;;3.08;;
18853;SDS011;9556;49.374;19.446;2023-06-01T04:37:25;6.00;;;3.00;;
18853;SDS011;9556;49.374;19.446;2023-06-01T04:39:54;4.53;;;2.75;;
18853;SDS011;9556;49.374;19.446;2023-06-01T04:42:21;5.10;;;2.47;;
18853;SDS011;9556;49.374;19.446;2023-06-01T04:44:49;4.03;;;2.70;;
18853;SDS011;9556;49.374;19.446;2023-06-01T04:47:16;9.73;;;2.70;;
18853;SDS011;9556;49.374;19.446;2023-06-01T04:49:46;5.55;;;2.75;;
18853;SDS011;9556;49.374;19.446;2023-06-01T04:52:14;3.65;;;2.63;;
18853;SDS011;9556;49.374;19.446;2023-06-01T04:54:41;5.85;;;2.72;;
18853;SDS011;9556;49.374;19.446;2023-06-01T04:57:10;4.07;;;2.70;;
18853;SDS011;9556;49.374;19.446;2023-06-01T04:59:39;6.60;;;2.92;;
18853;SDS011;9556;49.374;19.446;2023-06-01T05:02:07;3.45;;;2.60;;
18853;SDS011;9556;49.374;19.446;2023-06-01T05:04:34;5.38;;;2.67;;
18853;SDS011;9556;49.374;19.446;2023-06-01T05:07:01;3.83;;;2.40;;
18853;SDS011;9556;49.374;19.446;2023-06-01T05:09:28;6.72;;;3.00;;
18853;SDS011;9556;49.374;19.446;2023-06-01T05:11:55;7.85;;;2.75;;
18853;SDS011;9556;49.374;19.446;2023-06-01T05:14:24;7.32;;;2.70;;
18853;SDS011;9556;49.374;19.446;2023-06-01T05:16:51;5.53;;;2.20;;
18853;SDS011;9556;49.374;19.446;2023-06-01T05:19:18;4.80;;;2.58;;
18853;SDS011;9556;49.374;19.446;2023-06-01T05:21:46;6.97;;;2.78;;
18853;SDS011;9556;49.374;19.446;2023-06-01T05:24:13;7.22;;;2.60;;
18853;SDS011;9556;49.374;19.446;2023-06-01T05:26:40;9.90;;;2.60;;
18853;SDS011;9556;49.374;19.446;2023-06-01T05:29:08;5.32;;;2.47;;
18853;SDS011;9556;49.374;19.446;2023-06-01T05:31:36;10.02;;;2.65;;
18853;SDS011;9556;49.374;19.446;2023-06-01T05:34:03;7.65;;;2.67;;
18853;SDS011;9556;49.374;19.446;2023-06-01T05:36:31;6.88;;;2.40;;
18853;SDS011;9556;49.374;19.446;2023-06-01T05:38:58;7.18;;;2.50;;
18853;SDS011;9556;49.374;19.446;2023-06-01T05:41:25;9.63;;;2.85;;
18853;SDS011;9556;49.374;19.446;2023-06-01T05:43:52;5.65;;;3.13;;
18853;SDS011;9556;49.374;19.446;2023-06-01T05:46:20;6.75;;;2.60;;
18853;SDS011;9556;49.374;19.446;2023-06-01T05:48:48;5.72;;;3.33;;
18853;SDS011;9556;49.374;19.446;2023-06-01T05:51:16;4.32;;;2.88;;
18853;SDS011;9556;49.374;19.446;2023-06-01T05:53:43;5.55;;;2.70;;
18853;SDS011;9556;49.374;19.446;2023-06-01T05:56:10;5.10;;;2.75;;
18853;SDS011;9556;49.374;19.446;2023-06-01T05:58:37;4.82;;;2.45;;
18853;SDS011;9556;49.374;19.446;2023-06-01T06:01:05;5.05;;;2.60;;
18853;SDS011;9556;49.374;19.446;2023-06-01T06:03:32;6.55;;;2.90;;
18853;SDS011;9556;49.374;19.446;2023-06-01T06:06:01;4.80;;;2.50;;
18853;SDS011;9556;49.374;19.446;2023-06-01T06:08:28;4.30;;;2.50;;
18853;SDS011;9556;49.374;19.446;2023-06-01T06:10:55;4.85;;;3.28;;
18853;SDS011;9556;49.374;19.446;2023-06-01T06:13:22;5.25;;;3.00;;
18853;SDS011;9556;49.374;19.446;2023-06-01T06:15:50;5.20;;;2.50;;
18853;SDS011;9556;49.374;19.446;2023-06-01T06:18:17;6.90;;;2.38;;
18853;SDS011;9556;49.374;19.446;2023-06-01T06:20:45;3.47;;;2.33;;
18853;SDS011;9556;49.374;19.446;2023-06-01T06:23:14;6.10;;;1.98;;
18853;SDS011;9556;49.374;19.446;2023-06-01T06:25:41;4.30;;;2.42;;
18853;SDS011;9556;49.374;19.446;2023-06-01T06:28:08;4.78;;;2.33;;
18853;SDS011;9556;49.374;19.446;2023-06-01T06:30:35;4.05;;;2.40;;
18853;SDS011;9556;49.374;19.446;2023-06-01T06:33:02;5.28;;;2.22;;
18853;SDS011;9556;49.374;19.446;2023-06-01T06:35:30;5.00;;;2.33;;
18853;SDS011;9556;49.374;19.446;2023-06-01T06:37:57;6.30;;;2.20;;
18853;SDS011;9556;49.374;19.446;2023-06-01T06:40:25;5.50;;;1.95;;
18853;SDS011;9556;49.374;19.446;2023-06-01T06:42:53;10.35;;;2.97;;
18853;SDS011;9556;49.374;19.446;2023-06-01T06:45:20;6.57;;;2.28;;
18853;SDS011;9556;49.374;19.446;2023-06-01T06:47:47;6.93;;;2.60;;
18853;SDS011;9556;49.374;19.446;2023-06-01T06:50:15;5.05;;;2.38;;
18853;SDS011;9556;49.374;19.446;2023-06-01T06:52:42;4.47;;;2.42;;
18853;SDS011;9556;49.374;19.446;2023-06-01T06:55:09;9.10;;;2.58;;
18853;SDS011;9556;49.374;19.446;2023-06-01T06:57:38;5.18;;;2.40;;
18853;SDS011;9556;49.374;19.446;2023-06-01T07:00:06;5.40;;;2.63;;
18853;SDS011;9556;49.374;19.446;2023-06-01T07:02:34;3.55;;;2.70;;
18853;SDS011;9556;49.374;19.446;2023-06-01T07:05:01;6.43;;;2.90;;
18853;SDS011;9556;49.374;19.446;2023-06-01T07:07:31;6.78;;;2.97;;
18853;SDS011;9556;49.374;19.446;2023-06-01T07:09:58;9.52;;;2.70;;
18853;SDS011;9556;49.374;19.446;2023-06-01T07:12:25;7.07;;;2.92;;
18853;SDS011;9556;49.374;19.446;2023-06-01T07:14:53;6.57;;;2.97;;
18853;SDS011;9556;49.374;19.446;2023-06-01T07:17:21;9.63;;;3.08;;
18853;SDS011;9556;49.374;19.446;2023-06-01T07:19:48;9.40;;;3.33;;
18853;SDS011;9556;49.374;19.446;2023-06-01T07:22:15;17.08;;;3.83;;
18853;SDS011;9556;49.374;19.446;2023-06-01T07:24:42;14.20;;;3.72;;
18853;SDS011;9556;49.374;19.446;2023-06-01T07:27:09;8.48;;;3.50;;
18853;SDS011;9556;49.374;19.446;2023-06-01T07:29:38;9.82;;;3.47;;
18853;SDS011;9556;49.374;19.446;2023-06-01T07:32:07;13.32;;;3.67;;
18853;SDS011;9556;49.374;19.446;2023-06-01T07:34:35;7.32;;;3.53;;
18853;SDS011;9556;49.374;19.446;2023-06-01T07:37:02;14.00;;;3.55;;
18853;SDS011;9556;49.374;19.446;2023-06-01T07:39:29;6.20;;;3.20;;
18853;SDS011;9556;49.374;19.446;2023-06-01T07:41:56;12.10;;;3.47;;
18853;SDS011;9556;49.374;19.446;2023-06-01T07:44:23;13.35;;;3.03;;
18853;SDS011;9556;49.374;19.446;2023-06-01T07:46:51;7.43;;;3.10;;
18853;SDS011;9556;49.374;19.446;2023-06-01T07:49:19;9.75;;;3.10;;
18853;SDS011;9556;49.374;19.446;2023-06-01T07:51:46;5.47;;;2.92;;
18853;SDS011;9556;49.374;19.446;2023-06-01T07:54:16;5.93;;;3.10;;
18853;SDS011;9556;49.374;19.446;2023-06-01T07:56:44;7.05;;;3.38;;
18853;SDS011;9556;49.374;19.446;2023-06-01T07:59:12;7.07;;;3.30;;
18853;SDS011;9556;49.374;19.446;2023-06-01T08:01:39;7.35;;;3.17;;
18853;SDS011;9556;49.374;19.446;2023-06-01T08:04:06;7.07;;;3.15;;
18853;SDS011;9556;49.374;19.446;2023-06-01T08:06:37;8.82;;;3.50;;
18853;SDS011;9556;49.374;19.446;2023-06-01T08:09:06;7.00;;;3.28;;
18853;SDS011;9556;49.374;19.446;2023-06-01T08:11:35;9.77;;;3.58;;
18853;SDS011;9556;49.374;19.446;2023-06-01T08:14:02;5.13;;;2.83;;
18853;SDS011;9556;49.374;19.446;2023-06-01T08:16:32;5.20;;;2.90;;
18853;SDS011;9556;49.374;19.446;2023-06-01T08:18:59;6.32;;;3.08;;
18853;SDS011;9556;49.374;19.446;2023-06-01T08:21:27;7.00;;;3.00;;
18853;SDS011;9556;49.374;19.446;2023-06-01T08:23:55;8.38;;;2.90;;
18853;SDS011;9556;49.374;19.446;2023-06-01T08:26:23;5.45;;;3.05;;
18853;SDS011;9556;49.374;19.446;2023-06-01T08:28:50;4.18;;;2.65;;
18853;SDS011;9556;49.374;19.446;2023-06-01T08:31:18;8.35;;;3.20;;
18853;SDS011;9556;49.374;19.446;2023-06-01T08:33:45;7.22;;;3.30;;
18853;SDS011;9556;49.374;19.446;2023-06-01T08:36:12;5.13;;;2.83;;
18853;SDS011;9556;49.374;19.446;2023-06-01T08:38:39;7.03;;;3.47;;
18853;SDS011;9556;49.374;19.446;2023-06-01T08:41:11;9.63;;;2.83;;
18853;SDS011;9556;49.374;19.446;2023-06-01T08:43:41;5.53;;;2.80;;
18853;SDS011;9556;49.374;19.446;2023-06-01T08:46:10;6.55;;;2.78;;
18853;SDS011;9556;49.374;19.446;2023-06-01T08:48:37;5.07;;;2.75;;
18853;SDS011;9556;49.374;19.446;2023-06-01T08:51:05;5.32;;;2.90;;
18853;SDS011;9556;49.374;19.446;2023-06-01T08:53:33;6.35;;;2.63;;
18853;SDS011;9556;49.374;19.446;2023-06-01T08:56:00;5.80;;;2.78;;
18853;SDS011;9556;49.374;19.446;2023-06-01T08:58:30;5.05;;;2.67;;
18853;SDS011;9556;49.374;19.446;2023-06-01T09:00:57;5.35;;;2.97;;
18853;SDS011;9556;49.374;19.446;2023-06-01T09:03:25;5.88;;;2.78;;
18853;SDS011;9556;49.374;19.446;2023-06-01T09:05:52;4.78;;;2.60;;
18853;SDS011;9556;49.374;19.446;2023-06-01T09:08:19;3.35;;;2.50;;
18853;SDS011;9556;49.374;19.446;2023-06-01T09:10:47;4.32;;;2.40;;
18853;SDS011;9556;49.374;19.446;2023-06-01T09:13:18;4.90;;;2.90;;
18853;SDS011;9556;49.374;19.446;2023-06-01T09:15:58;4.82;;;2.58;;
18853;SDS011;9556;49.374;19.446;2023-06-01T09:18:25;6.07;;;2.78;;
18853;SDS011;9556;49.374;19.446;2023-06-01T09:20:52;3.55;;;2.60;;
18853;SDS011;9556;49.374;19.446;2023-06-01T09:23:25;6.45;;;2.92;;
18853;SDS011;9556;49.374;19.446;2023-06-01T09:26:05;4.32;;;2.80;;
18853;SDS011;9556;49.374;19.446;2023-06-01T09:34:01;5.88;;;2.70;;
18853;SDS011;9556;49.374;19.446;2023-06-01T09:36:28;6.80;;;2.65;;
18853;SDS011;9556;49.374;19.446;2023-06-01T09:38:59;5.05;;;2.55;;
18853;SDS011;9556;49.374;19.446;2023-06-01T09:41:27;5.25;;;2.65;;
18853;SDS011;9556;49.374;19.446;2023-06-01T09:43:56;4.88;;;2.50;;
18853;SDS011;9556;49.374;19.446;2023-06-01T09:46:23;5.28;;;2.50;;
18853;SDS011;9556;49.374;19.446;2023-06-01T09:48:58;7.47;;;2.60;;
18853;SDS011;9556;49.374;19.446;2023-06-01T09:51:33;5.03;;;2.53;;
18853;SDS011;9556;49.374;19.446;2023-06-01T09:54:00;5.22;;;2.58;;
18853;SDS011;9556;49.374;19.446;2023-06-01T09:56:28;4.75;;;2.40;;
18853;SDS011;9556;49.374;19.446;2023-06-01T09:58:57;6.47;;;2.90;;
18853;SDS011;9556;49.374;19.446;2023-06-01T10:01:27;5.95;;;2.22;;
18853;SDS011;9556;49.374;19.446;2023-06-01T10:03:55;5.88;;;2.65;;
18853;SDS011;9556;49.374;19.446;2023-06-01T10:06:23;2.95;;;2.30;;
18853;SDS011;9556;49.374;19.446;2023-06-01T10:08:51;4.68;;;2.63;;
18853;SDS011;9556;49.374;19.446;2023-06-01T10:11:19;5.03;;;2.40;;
18853;SDS011;9556;49.374;19.446;2023-06-01T10:13:47;4.90;;;2.70;;
18853;SDS011;9556;49.374;19.446;2023-06-01T10:16:14;8.80;;;2.55;;
18853;SDS011;9556;49.374;19.446;2023-06-01T10:18:41;3.65;;;2.17;;
18853;SDS011;9556;49.374;19.446;2023-06-01T10:21:08;5.13;;;2.72;;
18853;SDS011;9556;49.374;19.446;2023-06-01T10:23:35;5.05;;;2.30;;
18853;SDS011;9556;49.374;19.446;2023-06-01T10:26:06;7.95;;;2.75;;
18853;SDS011;9556;49.374;19.446;2023-06-01T10:28:36;4.28;;;2.38;;
18853;SDS011;9556;49.374;19.446;2023-06-01T10:33:53;13.05;;;3.03;;
18853;SDS011;9556;49.374;19.446;2023-06-01T10:36:20;5.32;;;2.67;;
18853;SDS011;9556;49.374;19.446;2023-06-01T10:38:47;5.07;;;2.80;;
18853;SDS011;9556;49.374;19.446;2023-06-01T10:41:28;5.00;;;2.72;;
18853;SDS011;9556;49.374;19.446;2023-06-01T10:43:56;3.95;;;2.30;;
18853;SDS011;9556;49.374;19.446;2023-06-01T10:46:35;3.85;;;2.55;;
18853;SDS011;9556;49.374;19.446;2023-06-01T10:49:03;4.82;;;2.53;;
18853;SDS011;9556;49.374;19.446;2023-06-01T10:51:31;5.65;;;2.30;;
18853;SDS011;9556;49.374;19.446;2023-06-01T10:56:45;5.57;;;2.55;;
18853;SDS011;9556;49.374;19.446;2023-06-01T10:59:12;4.63;;;2.10;;
18853;SDS011;9556;49.374;19.446;2023-06-01T11:01:40;3.58;;;2.53;;
18853;SDS011;9556;49.374;19.446;2023-06-01T11:04:07;4.75;;;2.30;;
18853;SDS011;9556;49.374;19.446;2023-06-01T11:06:36;4.00;;;2.30;;
18853;SDS011;9556;49.374;19.446;2023-06-01T11:09:05;8.15;;;2.30;;
18853;SDS011;9556;49.374;19.446;2023-06-01T11:14:35;4.68;;;2.42;;
18853;SDS011;9556;49.374;19.446;2023-06-01T11:20:02;3.72;;;2.28;;
18853;SDS011;9556;49.374;19.446;2023-06-01T11:22:36;6.25;;;2.47;;
18853;SDS011;9556;49.374;19.446;2023-06-01T11:25:05;3.70;;;2.15;;
18853;SDS011;9556;49.374;19.446;2023-06-01T11:27:33;3.20;;;2.30;;
18853;SDS011;9556;49.374;19.446;2023-06-01T11:30:02;5.38;;;2.47;;
18853;SDS011;9556;49.374;19.446;2023-06-01T11:32:30;5.10;;;2.55;;
18853;SDS011;9556;49.374;19.446;2023-06-01T11:34:58;4.55;;;2.60;;
18853;SDS011;9556;49.374;19.446;2023-06-01T11:37:26;5.07;;;2.70;;
18853;SDS011;9556;49.374;19.446;2023-06-01T11:39:53;5.72;;;2.65;;
18853;SDS011;9556;49.374;19.446;2023-06-01T11:42:34;6.82;;;2.70;;
18853;SDS011;9556;49.374;19.446;2023-06-01T11:45:03;7.18;;;3.08;;
18853;SDS011;9556;49.374;19.446;2023-06-01T11:47:31;6.40;;;2.50;;
18853;SDS011;9556;49.374;19.446;2023-06-01T11:49:58;16.70;;;2.58;;
18853;SDS011;9556;49.374;19.446;2023-06-01T11:52:25;9.57;;;2.90;;
18853;SDS011;9556;49.374;19.446;2023-06-01T11:54:53;5.65;;;2.80;;
18853;SDS011;9556;49.374;19.446;2023-06-01T11:57:20;9.98;;;2.58;;
18853;SDS011;9556;49.374;19.446;2023-06-01T11:59:48;12.20;;;2.63;;
18853;SDS011;9556;49.374;19.446;2023-06-01T12:02:18;5.32;;;2.50;;
18853;SDS011;9556;49.374;19.446;2023-06-01T12:04:56;7.30;;;2.95;;
18853;SDS011;9556;49.374;19.446;2023-06-01T12:07:24;6.25;;;2.72;;
18853;SDS011;9556;49.374;19.446;2023-06-01T12:09:51;6.93;;;2.80;;
18853;SDS011;9556;49.374;19.446;2023-06-01T12:12:20;11.82;;;2.97;;
18853;SDS011;9556;49.374;19.446;2023-06-01T12:14:48;8.38;;;2.65;;
18853;SDS011;9556;49.374;19.446;2023-06-01T12:17:17;11.52;;;3.10;;
18853;SDS011;9556;49.374;19.446;2023-06-01T12:19:45;8.05;;;3.13;;
18853;SDS011;9556;49.374;19.446;2023-06-01T12:22:13;6.88;;;2.85;;
18853;SDS011;9556;49.374;19.446;2023-06-01T12:24:40;9.85;;;3.05;;
18853;SDS011;9556;49.374;19.446;2023-06-01T12:27:12;6.40;;;2.88;;
18853;SDS011;9556;49.374;19.446;2023-06-01T12:29:40;4.45;;;2.90;;
18853;SDS011;9556;49.374;19.446;2023-06-01T12:32:08;5.53;;;2.40;;
18853;SDS011;9556;49.374;19.446;2023-06-01T12:34:37;5.72;;;2.83;;
18853;SDS011;9556;49.374;19.446;2023-06-01T12:37:14;8.13;;;2.50;;
18853;SDS011;9556;49.374;19.446;2023-06-01T12:39:41;9.70;;;2.53;;
18853;SDS011;9556;49.374;19.446;2023-06-01T12:42:09;12.13;;;3.17;;
18853;SDS011;9556;49.374;19.446;2023-06-01T12:44:36;4.28;;;2.40;;
18853;SDS011;9556;49.374;19.446;2023-06-01T12:47:06;7.60;;;2.63;;
18853;SDS011;9556;49.374;19.446;2023-06-01T12:49:33;6.20;;;2.80;;
18853;SDS011;9556;49.374;19.446;2023-06-01T12:52:04;3.65;;;2.38;;
18853;SDS011;9556;49.374;19.446;2023-06-01T12:54:31;7.75;;;2.80;;
18853;SDS011;9556;49.374;19.446;2023-06-01T12:56:58;8.55;;;2.90;;
18853;SDS011;9556;49.374;19.446;2023-06-01T12:59:25;7.90;;;3.08;;
18853;SDS011;9556;49.374;19.446;2023-06-01T13:01:52;5.80;;;2.80;;
18853;SDS011;9556;49.374;19.446;2023-06-01T13:04:19;7.88;;;2.67;;
18853;SDS011;9556;49.374;19.446;2023-06-01T13:06:48;13.20;;;2.67;;
18853;SDS011;9556;49.374;19.446;2023-06-01T13:09:17;12.85;;;3.10;;
18853;SDS011;9556;49.374;19.446;2023-06-01T13:11:44;18.27;;;2.85;;
18853;SDS011;9556;49.374;19.446;2023-06-01T13:14:11;8.63;;;2.42;;
18853;SDS011;9556;49.374;19.446;2023-06-01T13:16:39;6.65;;;2.70;;
18853;SDS011;9556;49.374;19.446;2023-06-01T13:19:07;9.80;;;2.63;;
18853;SDS011;9556;49.374;19.446;2023-06-01T13:21:34;7.10;;;2.80;;
18853;SDS011;9556;49.374;19.446;2023-06-01T13:24:01;11.07;;;2.60;;
18853;SDS011;9556;49.374;19.446;2023-06-01T13:26:30;9.45;;;2.60;;
18853;SDS011;9556;49.374;19.446;2023-06-01T13:28:57;7.55;;;2.60;;
18853;SDS011;9556;49.374;19.446;2023-06-01T13:31:24;6.03;;;2.63;;
18853;SDS011;9556;49.374;19.446;2023-06-01T13:33:51;7.20;;;2.95;;
18853;SDS011;9556;49.374;19.446;2023-06-01T13:36:19;6.38;;;2.65;;
18853;SDS011;9556;49.374;19.446;2023-06-01T13:38:46;5.63;;;2.78;;
18853;SDS011;9556;49.374;19.446;2023-06-01T13:41:13;12.90;;;2.90;;
18853;SDS011;9556;49.374;19.446;2023-06-01T13:43:42;13.02;;;3.08;;
18853;SDS011;9556;49.374;19.446;2023-06-01T13:46:09;6.88;;;2.63;;
18853;SDS011;9556;49.374;19.446;2023-06-01T13:48:36;5.53;;;2.60;;
18853;SDS011;9556;49.374;19.446;2023-06-01T13:51:04;7.18;;;2.40;;
18853;SDS011;9556;49.374;19.446;2023-06-01T13:53:31;9.00;;;2.70;;
18853;SDS011;9556;49.374;19.446;2023-06-01T13:55:58;6.45;;;2.95;;
18853;SDS011;9556;49.374;19.446;2023-06-01T13:58:26;7.45;;;2.85;;
18853;SDS011;9556;49.374;19.446;2023-06-01T14:00:55;6.35;;;2.63;;
18853;SDS011;9556;49.374;19.446;2023-06-01T14:03:22;5.28;;;2.83;;
18853;SDS011;9556;49.374;19.446;2023-06-01T14:05:49;5.55;;;2.50;;
18853;SDS011;9556;49.374;19.446;2023-06-01T14:08:16;5.25;;;2.30;;
18853;SDS011;9556;49.374;19.446;2023-06-01T14:10:43;9.18;;;3.20;;
18853;SDS011;9556;49.374;19.446;2023-06-01T14:13:10;10.10;;;2.55;;
18853;SDS011;9556;49.374;19.446;2023-06-01T14:15:38;6.57;;;2.83;;
18853;SDS011;9556;49.374;19.446;2023-06-01T14:18:06;7.50;;;2.80;;
18853;SDS011;9556;49.374;19.446;2023-06-01T14:20:33;4.97;;;3.10;;
18853;SDS011;9556;49.374;19.446;2023-06-01T14:23:02;6.80;;;3.00;;
18853;SDS011;9556;49.374;19.446;2023-06-01T14:25:30;6.40;;;2.70;;
18853;SDS011;9556;49.374;19.446;2023-06-01T14:27:57;5.18;;;2.80;;
18853;SDS011;9556;49.374;19.446;2023-06-01T14:30:24;11.77;;;3.55;;
18853;SDS011;9556;49.374;19.446;2023-06-01T14:32:52;4.72;;;2.80;;
18853;SDS011;9556;49.374;19.446;2023-06-01T14:35:20;6.47;;;2.70;;
18853;SDS011;9556;49.374;19.446;2023-06-01T14:37:47;4.45;;;2.70;;
18853;SDS011;9556;49.374;19.446;2023-06-01T14:40:15;8.43;;;2.70;;
18853;SDS011;9556;49.374;19.446;2023-06-01T14:42:42;5.78;;;2.88;;
18853;SDS011;9556;49.374;19.446;2023-06-01T14:45:10;9.23;;;2.78;;
18853;SDS011;9556;49.374;19.446;2023-06-01T14:47:37;7.95;;;2.78;;
18853;SDS011;9556;49.374;19.446;2023-06-01T14:50:06;6.35;;;3.00;;
18853;SDS011;9556;49.374;19.446;2023-06-01T14:52:35;5.20;;;2.78;;
18853;SDS011;9556;49.374;19.446;2023-06-01T14:55:02;5.78;;;2.70;;
18853;SDS011;9556;49.374;19.446;2023-06-01T14:57:30;8.73;;;2.90;;
18853;SDS011;9556;49.374;19.446;2023-06-01T14:59:58;6.68;;;2.40;;
18853;SDS011;9556;49.374;19.446;2023-06-01T15:02:25;6.60;;;2.70;;
18853;SDS011;9556;49.374;19.446;2023-06-01T15:04:52;5.28;;;2.75;;
18853;SDS011;9556;49.374;19.446;2023-06-01T15:07:19;8.50;;;2.55;;
18853;SDS011;9556;49.374;19.446;2023-06-01T15:09:48;11.32;;;3.13;;